PWSweather.com
Personal Weather Stations
Station Observations
SUBOTICARS
SuboticaYU

SuboticaYU

Lat: 46.1296717, Lon: 19.641551

Elevation: 361

Station Type: Nexus

http://sumeteo.info

Latest ConditionsUpdated 10:35:01 AM GMT+01:01 Thursday, Dec 12, 2019
Currently Today's Max Today's Min Today's Average
Temperature 38.8°F3.8°C 38.8°F3.8°C 35.6°F2.0°C 37.4°F3.0°C
Dew Point 35.9°F2.2°C 35.9°F2.2°C 31.2°F-0.4°C 34.2°F1.2°C
Winds 3.5 mph ENE5.6 kmh ENE 4.6 mph -7.4 kmh - - 3.5 mph 5.6 kmh
Wind Gusts 3.5 mph5.6 kmh 6.9 mph11.1 kmh - -
Humidity 89% 89% 84% 88%
Pressure 29.44 in997.0 mb 29.57 in1001.4 mb 29.44 in997.0 mb -
Hour Temp Dew Point Humidity Winds Wind Gusts Pressure Precip Precip Rate Daily Precip Total
10:35 AM 38.8°F3.8°C 35.9°F2.2°C 89% 3.5 mph ENE5.6 kmh ENE 3.5 mph5.6 kmh 29.44 in997.0 mb - 0.00 in0.0 mm 0.00 in0.0 mm
10:30 AM 38.8°F3.8°C 35.9°F2.2°C 89% 3.5 mph E5.6 kmh E 3.5 mph5.6 kmh 29.44 in997.0 mb - 0.00 in0.0 mm 0.00 in0.0 mm
10:25 AM 38.7°F3.7°C 35.7°F2.1°C 89% 3.5 mph E5.6 kmh E 3.5 mph5.6 kmh 29.45 in997.3 mb - 0.00 in0.0 mm 0.00 in0.0 mm
10:20 AM 38.7°F3.7°C 35.7°F2.1°C 89% 2.3 mph ENE3.7 kmh ENE 3.5 mph5.6 kmh 29.45 in997.3 mb - 0.00 in0.0 mm 0.00 in0.0 mm
10:15 AM 38.5°F3.6°C 35.5°F1.9°C 89% 3.5 mph E5.6 kmh E 3.5 mph5.6 kmh 29.45 in997.3 mb - 0.00 in0.0 mm 0.00 in0.0 mm
10:10 AM 38.5°F3.6°C 35.5°F1.9°C 89% 3.5 mph ENE5.6 kmh ENE 3.5 mph5.6 kmh 29.46 in997.6 mb - 0.00 in0.0 mm 0.00 in0.0 mm
10:00 AM 38.5°F3.6°C 35.5°F1.9°C 89% 3.5 mph NE5.6 kmh NE 3.5 mph5.6 kmh 29.46 in997.6 mb - 0.00 in0.0 mm 0.00 in0.0 mm
09:55 AM 38.3°F3.5°C 35.3°F1.8°C 89% 3.5 mph ENE5.6 kmh ENE 4.6 mph7.4 kmh 29.45 in997.3 mb - 0.00 in0.0 mm 0.00 in0.0 mm
09:50 AM 38.3°F3.5°C 35.3°F1.8°C 89% 3.5 mph ENE5.6 kmh ENE 3.5 mph5.6 kmh 29.45 in997.3 mb - 0.00 in0.0 mm 0.00 in0.0 mm
09:45 AM 38.3°F3.5°C 35.3°F1.8°C 89% 3.5 mph E5.6 kmh E 3.5 mph5.6 kmh 29.45 in997.3 mb - 0.00 in0.0 mm 0.00 in0.0 mm
09:40 AM 38.3°F3.5°C 35.3°F1.8°C 89% 3.5 mph ESE5.6 kmh ESE 4.6 mph7.4 kmh 29.45 in997.3 mb - 0.00 in0.0 mm 0.00 in0.0 mm
09:35 AM 38.3°F3.5°C 35.3°F1.8°C 89% 4.6 mph ESE7.4 kmh ESE 4.6 mph7.4 kmh 29.45 in997.3 mb - 0.00 in0.0 mm 0.00 in0.0 mm
09:30 AM 38.3°F3.5°C 35.3°F1.8°C 89% 3.5 mph E5.6 kmh E 3.5 mph5.6 kmh 29.45 in997.3 mb - 0.00 in0.0 mm 0.00 in0.0 mm
09:25 AM 38.1°F3.4°C 35.2°F1.8°C 89% 3.5 mph E5.6 kmh E 3.5 mph5.6 kmh 29.45 in997.3 mb - 0.00 in0.0 mm 0.00 in0.0 mm
09:20 AM 38.1°F3.4°C 35.2°F1.8°C 89% 3.5 mph E5.6 kmh E 3.5 mph5.6 kmh 29.45 in997.3 mb - 0.00 in0.0 mm 0.00 in0.0 mm
09:15 AM 38.1°F3.4°C 35.2°F1.8°C 89% 2.3 mph ENE3.7 kmh ENE 3.5 mph5.6 kmh 29.45 in997.3 mb - 0.00 in0.0 mm 0.00 in0.0 mm
09:10 AM 38.1°F3.4°C 35.2°F1.8°C 89% 3.5 mph E5.6 kmh E 3.5 mph5.6 kmh 29.45 in997.3 mb - 0.00 in0.0 mm 0.00 in0.0 mm
09:00 AM 38.1°F3.4°C 35.2°F1.8°C 89% 3.5 mph E5.6 kmh E 3.5 mph5.6 kmh 29.45 in997.3 mb - 0.00 in0.0 mm 0.00 in0.0 mm
08:55 AM 38.1°F3.4°C 35.2°F1.8°C 89% 3.5 mph E5.6 kmh E 3.5 mph5.6 kmh 29.45 in997.3 mb - 0.00 in0.0 mm 0.00 in0.0 mm
08:50 AM 38.1°F3.4°C 35.1°F1.7°C 89% 3.5 mph E5.6 kmh E 3.5 mph5.6 kmh 29.45 in997.3 mb - 0.00 in0.0 mm 0.00 in0.0 mm
08:45 AM 37.9°F3.3°C 35.0°F1.7°C 89% 3.5 mph ESE5.6 kmh ESE 4.6 mph7.4 kmh 29.45 in997.3 mb - 0.00 in0.0 mm 0.00 in0.0 mm
08:40 AM 37.9°F3.3°C 35.0°F1.7°C 89% 4.6 mph E7.4 kmh E 5.8 mph9.3 kmh 29.46 in997.6 mb - 0.00 in0.0 mm 0.00 in0.0 mm
08:35 AM 37.9°F3.3°C 35.0°F1.7°C 89% 3.5 mph E5.6 kmh E 5.8 mph9.3 kmh 29.46 in997.6 mb - 0.00 in0.0 mm 0.00 in0.0 mm
08:30 AM 37.9°F3.3°C 35.0°F1.7°C 89% 4.6 mph ENE7.4 kmh ENE 5.8 mph9.3 kmh 29.46 in997.6 mb - 0.00 in0.0 mm 0.00 in0.0 mm
08:25 AM 37.9°F3.3°C 35.0°F1.7°C 89% 3.5 mph ENE5.6 kmh ENE 3.5 mph5.6 kmh 29.46 in997.6 mb - 0.00 in0.0 mm 0.00 in0.0 mm
08:20 AM 37.9°F3.3°C 35.0°F1.7°C 89% 3.5 mph ENE5.6 kmh ENE 5.8 mph9.3 kmh 29.46 in997.6 mb - 0.00 in0.0 mm 0.00 in0.0 mm
08:15 AM 37.8°F3.2°C 34.8°F1.6°C 89% 3.5 mph ENE5.6 kmh ENE 3.5 mph5.6 kmh 29.46 in997.6 mb - 0.00 in0.0 mm 0.00 in0.0 mm
08:10 AM 37.8°F3.2°C 34.8°F1.6°C 89% 3.5 mph E5.6 kmh E 3.5 mph5.6 kmh 29.46 in997.6 mb - 0.00 in0.0 mm 0.00 in0.0 mm
08:00 AM 37.8°F3.2°C 34.8°F1.6°C 89% 3.5 mph E5.6 kmh E 3.5 mph5.6 kmh 29.46 in997.6 mb - 0.00 in0.0 mm 0.00 in0.0 mm
07:55 AM 37.8°F3.2°C 34.8°F1.6°C 89% 3.5 mph E5.6 kmh E 4.6 mph7.4 kmh 29.46 in997.6 mb - 0.00 in0.0 mm 0.00 in0.0 mm
07:50 AM 37.8°F3.2°C 34.8°F1.6°C 89% 3.5 mph E5.6 kmh E 3.5 mph5.6 kmh 29.46 in997.6 mb - 0.00 in0.0 mm 0.00 in0.0 mm
07:45 AM 37.8°F3.2°C 34.8°F1.6°C 89% 3.5 mph ENE5.6 kmh ENE 4.6 mph7.4 kmh 29.46 in997.6 mb - 0.00 in0.0 mm 0.00 in0.0 mm
07:40 AM 37.8°F3.2°C 34.8°F1.6°C 89% 3.5 mph E5.6 kmh E 3.5 mph5.6 kmh 29.46 in997.6 mb - 0.00 in0.0 mm 0.00 in0.0 mm
07:35 AM 37.8°F3.2°C 34.8°F1.6°C 89% 4.6 mph ENE7.4 kmh ENE 5.8 mph9.3 kmh 29.46 in997.6 mb - 0.00 in0.0 mm 0.00 in0.0 mm
07:30 AM 37.8°F3.2°C 34.8°F1.6°C 89% 3.5 mph E5.6 kmh E 3.5 mph5.6 kmh 29.46 in997.6 mb - 0.00 in0.0 mm 0.00 in0.0 mm
07:25 AM 37.8°F3.2°C 34.8°F1.6°C 89% 3.5 mph E5.6 kmh E 4.6 mph7.4 kmh 29.46 in997.6 mb - 0.00 in0.0 mm 0.00 in0.0 mm
07:20 AM 37.8°F3.2°C 34.8°F1.6°C 89% 3.5 mph ESE5.6 kmh ESE 4.6 mph7.4 kmh 29.46 in997.6 mb - 0.00 in0.0 mm 0.00 in0.0 mm
07:15 AM 37.6°F3.1°C 34.6°F1.4°C 89% 3.5 mph ENE5.6 kmh ENE 3.5 mph5.6 kmh 29.46 in997.6 mb - 0.00 in0.0 mm 0.00 in0.0 mm
07:10 AM 37.6°F3.1°C 34.6°F1.4°C 89% 4.6 mph E7.4 kmh E 5.8 mph9.3 kmh 29.46 in997.6 mb - 0.00 in0.0 mm 0.00 in0.0 mm
07:00 AM 37.6°F3.1°C 34.6°F1.4°C 89% 3.5 mph ESE5.6 kmh ESE 3.5 mph5.6 kmh 29.46 in997.6 mb - 0.00 in0.0 mm 0.00 in0.0 mm
06:55 AM 37.6°F3.1°C 34.6°F1.4°C 89% 4.6 mph E7.4 kmh E 4.6 mph7.4 kmh 29.46 in997.6 mb - 0.00 in0.0 mm 0.00 in0.0 mm
06:50 AM 37.6°F3.1°C 34.6°F1.4°C 89% 3.5 mph E5.6 kmh E 3.5 mph5.6 kmh 29.46 in997.6 mb - 0.00 in0.0 mm 0.00 in0.0 mm
06:45 AM 37.6°F3.1°C 34.6°F1.4°C 89% 3.5 mph E5.6 kmh E 3.5 mph5.6 kmh 29.46 in997.6 mb - 0.00 in0.0 mm 0.00 in0.0 mm
06:40 AM 37.6°F3.1°C 34.6°F1.4°C 89% 3.5 mph E5.6 kmh E 4.6 mph7.4 kmh 29.46 in997.6 mb - 0.00 in0.0 mm 0.00 in0.0 mm
06:35 AM 37.6°F3.1°C 34.6°F1.4°C 89% 3.5 mph E5.6 kmh E 4.6 mph7.4 kmh 29.46 in997.6 mb - 0.00 in0.0 mm 0.00 in0.0 mm
06:30 AM 37.6°F3.1°C 34.6°F1.4°C 89% 4.6 mph E7.4 kmh E 4.6 mph7.4 kmh 29.46 in997.6 mb - 0.00 in0.0 mm 0.00 in0.0 mm
06:25 AM 37.6°F3.1°C 34.6°F1.4°C 89% 4.6 mph E7.4 kmh E 4.6 mph7.4 kmh 29.46 in997.6 mb - 0.00 in0.0 mm 0.00 in0.0 mm
06:20 AM 37.6°F3.1°C 34.6°F1.4°C 89% 3.5 mph ENE5.6 kmh ENE 5.8 mph9.3 kmh 29.46 in997.6 mb - 0.00 in0.0 mm 0.00 in0.0 mm
06:15 AM 37.6°F3.1°C 34.6°F1.4°C 89% 4.6 mph E7.4 kmh E 5.8 mph9.3 kmh 29.46 in997.6 mb - 0.00 in0.0 mm 0.00 in0.0 mm
06:10 AM 37.6°F3.1°C 34.6°F1.4°C 89% 3.5 mph E5.6 kmh E 5.8 mph9.3 kmh 29.46 in997.6 mb - 0.00 in0.0 mm 0.00 in0.0 mm
06:00 AM 37.6°F3.1°C 34.6°F1.4°C 89% 4.6 mph E7.4 kmh E 6.9 mph11.1 kmh 29.46 in997.6 mb - 0.00 in0.0 mm 0.00 in0.0 mm
05:55 AM 37.6°F3.1°C 34.6°F1.4°C 89% 4.6 mph E7.4 kmh E 4.6 mph7.4 kmh 29.46 in997.6 mb - 0.00 in0.0 mm 0.00 in0.0 mm
05:50 AM 37.4°F3.0°C 34.5°F1.4°C 89% 4.6 mph E7.4 kmh E 5.8 mph9.3 kmh 29.46 in997.6 mb - 0.00 in0.0 mm 0.00 in0.0 mm
05:45 AM 37.4°F3.0°C 34.5°F1.4°C 89% 4.6 mph E7.4 kmh E 4.6 mph7.4 kmh 29.46 in997.6 mb - 0.00 in0.0 mm 0.00 in0.0 mm
05:40 AM 37.4°F3.0°C 34.5°F1.4°C 89% 4.6 mph ENE7.4 kmh ENE 5.8 mph9.3 kmh 29.46 in997.6 mb - 0.00 in0.0 mm 0.00 in0.0 mm
05:35 AM 37.4°F3.0°C 34.5°F1.4°C 89% 3.5 mph E5.6 kmh E 3.5 mph5.6 kmh 29.46 in997.6 mb - 0.00 in0.0 mm 0.00 in0.0 mm
05:30 AM 37.6°F3.1°C 34.6°F1.4°C 89% 4.6 mph E7.4 kmh E 5.8 mph9.3 kmh 29.46 in997.6 mb - 0.00 in0.0 mm 0.00 in0.0 mm
05:25 AM 37.6°F3.1°C 34.6°F1.4°C 89% 4.6 mph E7.4 kmh E 5.8 mph9.3 kmh 29.46 in997.6 mb - 0.00 in0.0 mm 0.00 in0.0 mm
05:20 AM 37.6°F3.1°C 34.6°F1.4°C 89% 4.6 mph ESE7.4 kmh ESE 5.8 mph9.3 kmh 29.46 in997.6 mb - 0.00 in0.0 mm 0.00 in0.0 mm
05:15 AM 37.6°F3.1°C 34.6°F1.4°C 89% 4.6 mph ESE7.4 kmh ESE 4.6 mph7.4 kmh 29.46 in997.6 mb - 0.00 in0.0 mm 0.00 in0.0 mm
05:10 AM 37.6°F3.1°C 34.3°F1.3°C 88% 4.6 mph E7.4 kmh E 4.6 mph7.4 kmh 29.47 in998.0 mb - 0.00 in0.0 mm 0.00 in0.0 mm
05:00 AM 37.6°F3.1°C 34.3°F1.3°C 88% 4.6 mph E7.4 kmh E 4.6 mph7.4 kmh 29.47 in998.0 mb - 0.00 in0.0 mm 0.00 in0.0 mm
04:55 AM 37.6°F3.1°C 34.3°F1.3°C 88% 4.6 mph E7.4 kmh E 5.8 mph9.3 kmh 29.47 in998.0 mb - 0.00 in0.0 mm 0.00 in0.0 mm
04:50 AM 37.6°F3.1°C 34.3°F1.3°C 88% 3.5 mph E5.6 kmh E 3.5 mph5.6 kmh 29.47 in998.0 mb - 0.00 in0.0 mm 0.00 in0.0 mm
04:45 AM 37.6°F3.1°C 34.3°F1.3°C 88% 3.5 mph ENE5.6 kmh ENE 3.5 mph5.6 kmh 29.47 in998.0 mb - 0.00 in0.0 mm 0.00 in0.0 mm
04:40 AM 37.4°F3.0°C 34.2°F1.2°C 88% 3.5 mph E5.6 kmh E 3.5 mph5.6 kmh 29.48 in998.3 mb - 0.00 in0.0 mm 0.00 in0.0 mm
04:35 AM 37.4°F3.0°C 34.2°F1.2°C 88% 3.5 mph E5.6 kmh E 3.5 mph5.6 kmh 29.48 in998.3 mb - 0.00 in0.0 mm 0.00 in0.0 mm
04:30 AM 37.4°F3.0°C 34.2°F1.2°C 88% 3.5 mph E5.6 kmh E 4.6 mph7.4 kmh 29.48 in998.3 mb - 0.00 in0.0 mm 0.00 in0.0 mm
04:25 AM 37.4°F3.0°C 34.2°F1.2°C 88% 3.5 mph E5.6 kmh E 4.6 mph7.4 kmh 29.48 in998.3 mb - 0.00 in0.0 mm 0.00 in0.0 mm
04:20 AM 37.4°F3.0°C 34.2°F1.2°C 88% 3.5 mph E5.6 kmh E 4.6 mph7.4 kmh 29.48 in998.3 mb - 0.00 in0.0 mm 0.00 in0.0 mm
04:15 AM 37.4°F3.0°C 34.2°F1.2°C 88% 3.5 mph E5.6 kmh E 3.5 mph5.6 kmh 29.48 in998.3 mb - 0.00 in0.0 mm 0.00 in0.0 mm
04:10 AM 37.4°F3.0°C 34.2°F1.2°C 88% 4.6 mph E7.4 kmh E 5.8 mph9.3 kmh 29.48 in998.3 mb - 0.00 in0.0 mm 0.00 in0.0 mm
04:00 AM 37.4°F3.0°C 34.2°F1.2°C 88% 3.5 mph ENE5.6 kmh ENE 3.5 mph5.6 kmh 29.48 in998.3 mb - 0.00 in0.0 mm 0.00 in0.0 mm
03:55 AM 37.4°F3.0°C 34.2°F1.2°C 88% 3.5 mph E5.6 kmh E 3.5 mph5.6 kmh 29.48 in998.3 mb - 0.00 in0.0 mm 0.00 in0.0 mm
03:50 AM 37.4°F3.0°C 34.2°F1.2°C 88% 3.5 mph E5.6 kmh E 4.6 mph7.4 kmh 29.48 in998.3 mb - 0.00 in0.0 mm 0.00 in0.0 mm
03:35 AM 37.4°F3.0°C 34.2°F1.2°C 88% 4.6 mph E7.4 kmh E 4.6 mph7.4 kmh 29.48 in998.3 mb - 0.00 in0.0 mm 0.00 in0.0 mm
03:30 AM 37.4°F3.0°C 34.2°F1.2°C 88% 3.5 mph ESE5.6 kmh ESE 3.5 mph5.6 kmh 29.48 in998.3 mb - 0.00 in0.0 mm 0.00 in0.0 mm
03:25 AM 37.4°F3.0°C 34.2°F1.2°C 88% 3.5 mph ESE5.6 kmh ESE 3.5 mph5.6 kmh 29.49 in998.6 mb - 0.00 in0.0 mm 0.00 in0.0 mm
03:20 AM 37.4°F3.0°C 34.2°F1.2°C 88% 3.5 mph ESE5.6 kmh ESE 3.5 mph5.6 kmh 29.49 in998.6 mb - 0.00 in0.0 mm 0.00 in0.0 mm
03:15 AM 37.4°F3.0°C 34.2°F1.2°C 88% 3.5 mph E5.6 kmh E 3.5 mph5.6 kmh 29.49 in998.6 mb - 0.00 in0.0 mm 0.00 in0.0 mm
03:10 AM 37.4°F3.0°C 34.2°F1.2°C 88% 3.5 mph E5.6 kmh E 3.5 mph5.6 kmh 29.49 in998.6 mb - 0.00 in0.0 mm 0.00 in0.0 mm
03:00 AM 37.4°F3.0°C 34.2°F1.2°C 88% 3.5 mph E5.6 kmh E 3.5 mph5.6 kmh 29.49 in998.6 mb - 0.00 in0.0 mm 0.00 in0.0 mm
02:55 AM 37.2°F2.9°C 34.0°F1.1°C 88% 3.5 mph ENE5.6 kmh ENE 3.5 mph5.6 kmh 29.50 in999.0 mb - 0.00 in0.0 mm 0.00 in0.0 mm
02:50 AM 37.2°F2.9°C 34.0°F1.1°C 88% 3.5 mph E5.6 kmh E 3.5 mph5.6 kmh 29.50 in999.0 mb - 0.00 in0.0 mm 0.00 in0.0 mm
02:45 AM 37.2°F2.9°C 34.0°F1.1°C 88% 3.5 mph ENE5.6 kmh ENE 3.5 mph5.6 kmh 29.50 in999.0 mb - 0.00 in0.0 mm 0.00 in0.0 mm
02:40 AM 37.2°F2.9°C 34.0°F1.1°C 88% 2.3 mph ENE3.7 kmh ENE 3.5 mph5.6 kmh 29.51 in999.3 mb - 0.00 in0.0 mm 0.00 in0.0 mm
02:35 AM 37.0°F2.8°C 33.8°F1.0°C 88% 3.5 mph E5.6 kmh E 3.5 mph5.6 kmh 29.51 in999.3 mb - 0.00 in0.0 mm 0.00 in0.0 mm
02:30 AM 37.0°F2.8°C 33.8°F1.0°C 88% 2.3 mph E3.7 kmh E 3.5 mph5.6 kmh 29.51 in999.3 mb - 0.00 in0.0 mm 0.00 in0.0 mm
02:25 AM 37.0°F2.8°C 33.8°F1.0°C 88% 2.3 mph E3.7 kmh E 3.5 mph5.6 kmh 29.51 in999.3 mb - 0.00 in0.0 mm 0.00 in0.0 mm
02:20 AM 36.9°F2.7°C 33.6°F0.9°C 88% 2.3 mph E3.7 kmh E 2.3 mph3.7 kmh 29.51 in999.3 mb - 0.00 in0.0 mm 0.00 in0.0 mm
02:15 AM 36.9°F2.7°C 33.6°F0.9°C 88% 2.3 mph E3.7 kmh E 3.5 mph5.6 kmh 29.51 in999.3 mb - 0.00 in0.0 mm 0.00 in0.0 mm
02:10 AM 36.9°F2.7°C 33.6°F0.9°C 88% 2.3 mph ENE3.7 kmh ENE 3.5 mph5.6 kmh 29.52 in999.7 mb - 0.00 in0.0 mm 0.00 in0.0 mm
02:00 AM 36.7°F2.6°C 33.5°F0.8°C 88% 2.3 mph ENE3.7 kmh ENE 3.5 mph5.6 kmh 29.52 in999.7 mb - 0.00 in0.0 mm 0.00 in0.0 mm
01:55 AM 36.7°F2.6°C 33.5°F0.8°C 88% 2.3 mph ENE3.7 kmh ENE 3.5 mph5.6 kmh 29.52 in999.7 mb - 0.00 in0.0 mm 0.00 in0.0 mm
01:50 AM 36.7°F2.6°C 33.5°F0.8°C 88% 2.3 mph ENE3.7 kmh ENE 3.5 mph5.6 kmh 29.52 in999.7 mb - 0.00 in0.0 mm 0.00 in0.0 mm
01:45 AM 36.5°F2.5°C 33.0°F0.6°C 87% 3.5 mph E5.6 kmh E 3.5 mph5.6 kmh 29.52 in999.7 mb - 0.00 in0.0 mm 0.00 in0.0 mm
01:40 AM 36.5°F2.5°C 33.0°F0.6°C 87% 3.5 mph E5.6 kmh E 4.6 mph7.4 kmh 29.53 in1000.0 mb - 0.00 in0.0 mm 0.00 in0.0 mm
01:35 AM 36.5°F2.5°C 33.0°F0.6°C 87% 3.5 mph E5.6 kmh E 3.5 mph5.6 kmh 29.53 in1000.0 mb - 0.00 in0.0 mm 0.00 in0.0 mm
01:30 AM 36.3°F2.4°C 32.8°F0.4°C 87% 3.5 mph ENE5.6 kmh ENE 3.5 mph5.6 kmh 29.53 in1000.0 mb - 0.00 in0.0 mm 0.00 in0.0 mm
01:25 AM 36.3°F2.4°C 32.8°F0.4°C 87% 3.5 mph E5.6 kmh E 3.5 mph5.6 kmh 29.53 in1000.0 mb - 0.00 in0.0 mm 0.00 in0.0 mm
01:20 AM 36.3°F2.4°C 32.8°F0.4°C 87% 3.5 mph E5.6 kmh E 3.5 mph5.6 kmh 29.53 in1000.0 mb - 0.00 in0.0 mm 0.00 in0.0 mm
01:15 AM 36.3°F2.4°C 32.8°F0.4°C 87% 3.5 mph E5.6 kmh E 4.6 mph7.4 kmh 29.53 in1000.0 mb - 0.00 in0.0 mm 0.00 in0.0 mm
01:10 AM 36.3°F2.4°C 32.5°F0.3°C 86% 3.5 mph E5.6 kmh E 3.5 mph5.6 kmh 29.54 in1000.3 mb - 0.00 in0.0 mm 0.00 in0.0 mm
01:00 AM 36.1°F2.3°C 32.3°F0.2°C 86% 3.5 mph ENE5.6 kmh ENE 3.5 mph5.6 kmh 29.54 in1000.3 mb - 0.00 in0.0 mm 0.00 in0.0 mm
12:55 AM 36.0°F2.2°C 32.2°F0.1°C 86% 3.5 mph E5.6 kmh E 3.5 mph5.6 kmh 29.54 in1000.3 mb - 0.00 in0.0 mm 0.00 in0.0 mm
12:50 AM 36.0°F2.2°C 32.2°F0.1°C 86% 3.5 mph E5.6 kmh E 3.5 mph5.6 kmh 29.54 in1000.3 mb - 0.00 in0.0 mm 0.00 in0.0 mm
12:45 AM 36.0°F2.2°C 32.2°F0.1°C 86% 2.3 mph ENE3.7 kmh ENE 3.5 mph5.6 kmh 29.54 in1000.3 mb - 0.00 in0.0 mm 0.00 in0.0 mm
12:40 AM 35.8°F2.1°C 32.0°F0.0°C 86% 3.5 mph E5.6 kmh E 3.5 mph5.6 kmh 29.55 in1000.7 mb - 0.00 in0.0 mm 0.00 in0.0 mm
12:35 AM 35.8°F2.1°C 32.0°F0.0°C 86% 2.3 mph ENE3.7 kmh ENE 3.5 mph5.6 kmh 29.55 in1000.7 mb - 0.00 in0.0 mm 0.00 in0.0 mm
12:30 AM 35.8°F2.1°C 32.0°F0.0°C 86% 2.3 mph ENE3.7 kmh ENE 2.3 mph3.7 kmh 29.55 in1000.7 mb - 0.00 in0.0 mm 0.00 in0.0 mm
12:25 AM 35.8°F2.1°C 32.0°F0.0°C 86% 2.3 mph E3.7 kmh E 4.6 mph7.4 kmh 29.55 in1000.7 mb - 0.00 in0.0 mm 0.00 in0.0 mm
12:20 AM 35.6°F2.0°C 31.8°F-0.1°C 86% 2.3 mph ENE3.7 kmh ENE 3.5 mph5.6 kmh 29.55 in1000.7 mb - 0.00 in0.0 mm 0.00 in0.0 mm
12:15 AM 35.6°F2.0°C 31.2°F-0.4°C 84% 3.5 mph E5.6 kmh E 4.6 mph7.4 kmh 29.55 in1000.7 mb - 0.00 in0.0 mm 0.00 in0.0 mm
12:10 AM 35.6°F2.0°C 31.2°F-0.4°C 84% 3.5 mph E5.6 kmh E 3.5 mph5.6 kmh 29.57 in1001.4 mb - 0.00 in0.0 mm 0.00 in0.0 mm
12:00 AM 35.6°F2.0°C 31.8°F-0.1°C 86% 1.2 mph ENE1.9 kmh ENE 2.3 mph3.7 kmh 29.57 in1001.4 mb - 0.00 in0.0 mm 0.00 in0.0 mm